createdAt,value
2023-03-10T00:01:44.903Z,44.10
2023-03-10T00:05:19.116Z,42.67
2023-03-10T00:08:51.355Z,39.63
2023-03-10T00:12:23.669Z,46.10
2023-03-10T00:15:55.979Z,51.38
2023-03-10T00:19:27.875Z,42.35
2023-03-10T00:22:59.913Z,48.90
2023-03-10T00:26:31.906Z,46.73
2023-03-10T00:30:05.104Z,45.00
2023-03-10T00:33:37.110Z,44.30
2023-03-10T00:37:10.147Z,44.30
2023-03-10T00:40:43.736Z,38.92
2023-03-10T00:44:15.808Z,48.92
2023-03-10T00:47:48.219Z,53.00
2023-03-10T00:51:20.883Z,47.30
2023-03-10T00:54:53.949Z,49.35
2023-03-10T00:58:25.991Z,50.72
2023-03-10T01:01:58.123Z,52.10
2023-03-10T01:05:30.354Z,58.75
2023-03-10T01:09:02.784Z,59.58
2023-03-10T01:12:35.124Z,51.53
2023-03-10T01:16:07.323Z,60.05
2023-03-10T01:19:39.742Z,59.35
2023-03-10T01:23:17.062Z,54.90
2023-03-10T01:26:50.162Z,48.65
2023-03-10T01:30:23.452Z,53.53
2023-03-10T01:33:55.247Z,51.30
2023-03-10T01:37:27.389Z,54.17
2023-03-10T01:41:01.614Z,52.35
2023-03-10T01:44:34.116Z,53.60
2023-03-10T01:48:06.299Z,52.00
2023-03-10T01:51:41.302Z,53.50
2023-03-10T01:55:21.342Z,59.00
2023-03-10T01:58:53.913Z,51.70
2023-03-10T02:02:26.638Z,53.92
2023-03-10T02:06:06.595Z,51.03
2023-03-10T02:09:43.630Z,49.40
2023-03-10T02:13:15.437Z,45.60
2023-03-10T02:16:47.562Z,48.03
2023-03-10T02:20:29.397Z,52.20
2023-03-10T02:24:18.353Z,54.73
2023-03-10T02:27:50.628Z,63.05
2023-03-10T02:31:23.438Z,61.35
2023-03-10T02:34:55.172Z,51.20
2023-03-10T02:38:27.196Z,60.75
2023-03-10T02:41:59.012Z,53.38
2023-03-10T02:45:35.823Z,53.92
2023-03-10T02:49:10.724Z,56.03
2023-03-10T02:52:50.882Z,48.15
2023-03-10T02:56:22.670Z,53.05
2023-03-10T02:59:54.902Z,43.20
2023-03-10T03:03:27.290Z,51.80
2023-03-10T03:06:59.853Z,46.10
2023-03-10T03:10:33.086Z,42.17
2023-03-10T03:14:04.995Z,44.13
2023-03-10T03:17:37.299Z,45.53
2023-03-10T03:21:16.085Z,50.97
2023-03-10T03:24:48.301Z,47.63
2023-03-10T03:28:20.192Z,43.53
2023-03-10T03:31:52.279Z,39.92
2023-03-10T03:35:31.730Z,41.13
2023-03-10T03:39:06.625Z,47.13
2023-03-10T03:42:43.911Z,39.40
2023-03-10T03:46:15.872Z,45.33
2023-03-10T03:49:48.143Z,36.45
2023-03-10T03:53:19.928Z,45.78
2023-03-10T03:56:52.048Z,44.50
2023-03-10T04:00:25.044Z,41.53
2023-03-10T04:03:57.236Z,47.72
2023-03-10T04:07:29.278Z,52.47
2023-03-10T04:11:01.496Z,48.90
2023-03-10T04:14:34.111Z,50.00
2023-03-10T04:18:06.377Z,45.58
2023-03-10T04:21:39.461Z,48.60
2023-03-10T04:25:11.878Z,49.58
2023-03-10T04:28:43.908Z,55.65
2023-03-10T04:32:15.768Z,55.22
2023-03-10T04:35:48.952Z,56.10
2023-03-10T04:39:20.900Z,53.55
2023-03-10T04:42:53.389Z,59.65
2023-03-10T04:46:25.285Z,49.90
2023-03-10T04:49:57.659Z,51.10
2023-03-10T04:53:30.598Z,61.25
2023-03-10T04:57:03.681Z,59.20
2023-03-10T05:00:36.041Z,58.08
2023-03-10T05:04:08.493Z,58.00
2023-03-10T05:07:41.041Z,60.88
2023-03-10T05:11:13.985Z,50.23
2023-03-10T05:14:45.952Z,52.88
2023-03-10T05:18:18.353Z,57.67
2023-03-10T05:21:50.290Z,54.10
2023-03-10T05:25:22.415Z,54.05
2023-03-10T05:28:57.486Z,50.75
2023-03-10T05:32:29.783Z,56.00
2023-03-10T05:36:05.309Z,61.35
2023-03-10T05:39:40.374Z,52.70
2023-03-10T05:43:22.910Z,51.35
2023-03-10T05:48:04.550Z,65.93
2023-03-10T05:51:15.573Z,55.85
2023-03-10T05:54:51.045Z,61.03
2023-03-10T05:58:35.827Z,62.13
2023-03-10T06:02:15.974Z,58.85
2023-03-10T06:05:57.273Z,60.17
2023-03-10T06:09:36.549Z,60.70
2023-03-10T06:13:25.125Z,54.70
2023-03-10T06:17:12.441Z,58.97
2023-03-10T06:20:48.211Z,55.85
2023-03-10T06:24:39.756Z,61.40
2023-03-10T06:28:14.391Z,66.13
2023-03-10T06:31:55.757Z,61.88
2023-03-10T06:35:42.441Z,57.83
2023-03-10T06:39:15.198Z,59.70
2023-03-10T06:42:51.258Z,64.32
2023-03-10T06:46:37.037Z,69.10
2023-03-10T06:50:12.115Z,72.03
2023-03-10T06:53:46.536Z,77.15
2023-03-10T06:57:25.572Z,69.88
2023-03-10T07:01:03.982Z,72.47
2023-03-10T07:04:44.449Z,74.97
2023-03-10T07:08:33.870Z,76.78
2023-03-10T07:12:14.573Z,67.77
2023-03-10T07:15:47.374Z,73.78
2023-03-10T07:19:20.669Z,78.78
2023-03-10T07:23:01.105Z,72.60
2023-03-10T07:26:37.894Z,68.63
2023-03-10T07:30:20.712Z,63.25
2023-03-10T07:33:53.145Z,62.75
2023-03-10T07:37:25.207Z,60.23
2023-03-10T07:40:59.895Z,65.97
2023-03-10T07:44:41.045Z,67.60
2023-03-10T07:48:15.409Z,59.90
2023-03-10T07:51:49.869Z,65.35
2023-03-10T07:55:22.140Z,61.60
2023-03-10T07:58:53.968Z,56.83
2023-03-10T08:02:34.158Z,57.88
2023-03-10T08:06:23.848Z,54.13
2023-03-10T08:09:58.582Z,48.75
2023-03-10T08:13:33.294Z,49.67
2023-03-10T08:17:06.506Z,45.95
2023-03-10T08:20:40.703Z,53.10
2023-03-10T08:24:13.785Z,40.37
2023-03-10T08:27:45.995Z,46.60
2023-03-10T08:31:20.677Z,38.38
2023-03-10T08:34:52.904Z,33.57
2023-03-10T08:38:28.118Z,31.63
2023-03-10T08:42:00.128Z,31.85
2023-03-10T08:45:32.600Z,24.67
2023-03-10T08:49:04.442Z,20.97
2023-03-10T08:52:36.969Z,25.83
2023-03-10T08:56:09.475Z,16.50
2023-03-10T08:59:41.475Z,18.37
2023-03-10T09:03:15.578Z,19.27
2023-03-10T09:06:47.574Z,16.70
2023-03-10T09:10:19.775Z,14.97
2023-03-10T09:13:52.090Z,15.68
2023-03-10T09:17:24.396Z,16.88
2023-03-10T09:20:56.886Z,12.00
2023-03-10T09:24:28.887Z,14.27
2023-03-10T09:28:03.378Z,14.10
2023-03-10T09:31:39.868Z,12.52
2023-03-10T09:35:16.667Z,12.27
2023-03-10T09:38:50.727Z,11.07
2023-03-10T09:42:38.351Z,11.75
2023-03-10T09:46:18.435Z,15.50
2023-03-10T09:50:14.092Z,9.25
2023-03-10T09:54:01.230Z,11.38
2023-03-10T09:57:36.287Z,9.02
2023-03-10T10:01:17.236Z,11.23
2023-03-10T10:04:56.329Z,11.20
2023-03-10T10:08:33.150Z,11.52
2023-03-10T10:12:19.657Z,15.00
2023-03-10T10:16:18.392Z,10.07
2023-03-10T10:19:53.592Z,14.10
2023-03-10T10:23:39.041Z,11.20
2023-03-10T10:27:15.912Z,10.30
2023-03-10T10:30:49.945Z,8.05
2023-03-10T10:34:23.364Z,10.55
2023-03-10T10:38:04.441Z,10.10
2023-03-10T10:41:38.278Z,8.02
2023-03-10T10:45:43.958Z,5.50
2023-03-10T10:49:31.773Z,11.83
2023-03-10T10:53:16.099Z,8.32
2023-03-10T10:57:00.158Z,8.13
2023-03-10T11:00:34.626Z,11.27
2023-03-10T11:04:08.253Z,5.43
2023-03-10T11:07:40.622Z,7.43
2023-03-10T11:11:20.524Z,5.32
2023-03-10T11:15:10.932Z,4.03
2023-03-10T11:18:59.380Z,6.25
2023-03-10T11:22:49.294Z,6.57
2023-03-10T11:26:40.311Z,4.30
2023-03-10T11:30:14.370Z,4.80
2023-03-10T11:33:54.479Z,4.50
2023-03-10T11:37:44.100Z,6.20
2023-03-10T11:41:21.415Z,5.13
2023-03-10T11:45:25.657Z,7.83
2023-03-10T11:49:06.374Z,5.70
2023-03-10T11:52:39.022Z,4.10
2023-03-10T11:56:17.672Z,4.23
2023-03-10T12:00:01.461Z,4.82
2023-03-10T12:03:48.385Z,4.25
2023-03-10T12:07:51.862Z,7.07
2023-03-10T12:11:27.252Z,4.27
2023-03-10T12:15:02.426Z,5.78
2023-03-10T12:18:34.820Z,5.45
2023-03-10T12:22:22.861Z,5.07
2023-03-10T12:25:55.275Z,6.38
2023-03-10T12:29:27.435Z,7.30
2023-03-10T12:32:59.418Z,6.33
2023-03-10T12:36:32.802Z,5.43
2023-03-10T12:40:47.570Z,4.57
2023-03-10T12:44:22.567Z,4.53
2023-03-10T12:48:10.905Z,5.60
2023-03-10T12:51:54.827Z,4.63
2023-03-10T12:55:28.107Z,3.55
2023-03-10T12:59:13.096Z,4.60
2023-03-10T13:03:17.076Z,5.50
2023-03-10T13:06:50.523Z,5.75
2023-03-10T13:10:25.418Z,3.33
2023-03-10T13:14:13.922Z,5.90
2023-03-10T13:17:46.258Z,3.40
2023-03-10T13:21:29.546Z,5.82
2023-03-10T13:25:05.350Z,5.05
2023-03-10T13:28:38.229Z,4.83
2023-03-10T13:32:19.430Z,3.80
2023-03-10T13:35:51.258Z,6.05
2023-03-10T13:39:27.429Z,6.18
2023-03-10T13:42:59.634Z,6.70
2023-03-10T13:46:33.757Z,5.97
2023-03-10T13:50:14.591Z,4.40
2023-03-10T13:53:52.054Z,3.73
2023-03-10T13:57:31.955Z,5.63
2023-03-10T14:01:05.216Z,5.95
2023-03-10T14:04:45.024Z,7.18
2023-03-10T14:08:28.898Z,6.60
2023-03-10T14:12:01.569Z,6.03
2023-03-10T14:15:38.887Z,5.18
2023-03-10T14:19:11.521Z,6.00
2023-03-10T14:22:44.252Z,5.90
2023-03-10T14:26:17.907Z,5.38
2023-03-10T14:29:52.643Z,5.00
2023-03-10T14:33:25.305Z,9.97
2023-03-10T14:36:59.730Z,5.93
2023-03-10T14:40:37.330Z,8.40
2023-03-10T14:44:10.478Z,6.43
2023-03-10T14:47:43.043Z,9.33
2023-03-10T14:51:32.537Z,4.20
2023-03-10T14:55:10.098Z,8.20
2023-03-10T14:58:54.033Z,3.95
2023-03-10T15:02:26.686Z,4.97
2023-03-10T15:05:58.475Z,8.63
2023-03-10T15:09:30.820Z,7.43
2023-03-10T15:13:03.041Z,5.18
2023-03-10T15:16:35.391Z,7.23
2023-03-10T15:20:10.765Z,6.67
2023-03-10T15:23:44.420Z,6.68
2023-03-10T15:27:19.053Z,6.75
2023-03-10T15:30:51.301Z,25.10
2023-03-10T15:34:23.960Z,25.40
2023-03-10T15:37:56.786Z,24.10
2023-03-10T15:41:28.996Z,19.27
2023-03-10T15:45:04.579Z,25.73
2023-03-10T15:48:36.673Z,23.60
2023-03-10T15:52:14.195Z,26.92
2023-03-10T15:55:46.152Z,24.07
2023-03-10T15:59:18.411Z,23.23
2023-03-10T16:02:51.252Z,20.77
2023-03-10T16:06:27.699Z,23.42
2023-03-10T16:09:59.778Z,22.10
2023-03-10T16:13:32.440Z,21.75
2023-03-10T16:17:04.270Z,24.25
2023-03-10T16:20:36.317Z,19.57
2023-03-10T16:24:08.861Z,22.35
2023-03-10T16:27:42.136Z,23.10
2023-03-10T16:31:16.620Z,19.97
2023-03-10T16:34:49.192Z,19.92
2023-03-10T16:38:21.404Z,19.58
2023-03-10T16:41:53.248Z,25.00
2023-03-10T16:45:25.591Z,32.77
2023-03-10T16:49:01.354Z,33.90
2023-03-10T16:52:39.896Z,26.10
2023-03-10T16:56:12.110Z,26.10
2023-03-10T16:59:44.754Z,28.38
2023-03-10T17:03:22.058Z,25.15
2023-03-10T17:06:53.991Z,33.93
2023-03-10T17:10:26.975Z,34.85
2023-03-10T17:14:01.745Z,30.67
2023-03-10T17:17:34.234Z,29.52
2023-03-10T17:21:13.068Z,31.00
2023-03-10T17:24:45.215Z,33.47
2023-03-10T17:28:17.870Z,33.03
2023-03-10T17:31:51.788Z,36.53
2023-03-10T17:35:24.249Z,34.47
2023-03-10T17:38:58.347Z,35.63
2023-03-10T17:42:30.683Z,41.50
2023-03-10T17:46:06.335Z,47.42
2023-03-10T17:49:38.238Z,39.63
2023-03-10T17:53:10.330Z,27.63
2023-03-10T17:56:42.283Z,38.07
2023-03-10T18:00:15.106Z,36.72
2023-03-10T18:03:48.459Z,32.65
2023-03-10T18:07:21.078Z,45.23
2023-03-10T18:11:01.664Z,41.28
2023-03-10T18:14:34.604Z,39.15
2023-03-10T18:18:06.801Z,37.53
2023-03-10T18:21:39.205Z,38.23
2023-03-10T18:25:11.642Z,45.55
2023-03-10T18:28:43.721Z,52.08
2023-03-10T18:32:15.817Z,45.10
2023-03-10T18:35:48.750Z,53.80
2023-03-10T18:39:21.011Z,50.45
2023-03-10T18:42:53.141Z,43.73
2023-03-10T18:46:25.301Z,45.08
2023-03-10T18:49:58.764Z,44.05
2023-03-10T18:53:30.836Z,42.80
2023-03-10T18:57:03.870Z,42.40
2023-03-10T19:00:40.147Z,35.65
2023-03-10T19:04:11.906Z,28.35
2023-03-10T19:07:44.092Z,33.67
2023-03-10T19:11:16.192Z,42.30
2023-03-10T19:14:52.258Z,51.65
2023-03-10T19:18:25.941Z,41.00
2023-03-10T19:22:01.243Z,33.15
2023-03-10T19:25:33.594Z,34.10
2023-03-10T19:29:06.978Z,32.97
2023-03-10T19:32:40.235Z,27.00
2023-03-10T19:36:13.645Z,30.58
2023-03-10T19:39:45.800Z,26.25
2023-03-10T19:43:17.850Z,26.13
2023-03-10T19:46:50.288Z,28.02
2023-03-10T19:50:22.491Z,28.38
2023-03-10T19:53:56.834Z,31.00
2023-03-10T19:57:31.799Z,27.05
2023-03-10T20:01:03.935Z,33.33
2023-03-10T20:04:38.313Z,36.75
2023-03-10T20:08:10.283Z,35.53
2023-03-10T20:11:42.571Z,34.70
2023-03-10T20:15:15.261Z,35.25
2023-03-10T20:18:47.168Z,32.93
2023-03-10T20:22:19.471Z,38.33
2023-03-10T20:25:51.236Z,34.58
2023-03-10T20:29:23.754Z,33.73
2023-03-10T20:32:57.308Z,34.20
2023-03-10T20:36:29.990Z,36.33
2023-03-10T20:40:05.889Z,33.08
2023-03-10T20:43:37.643Z,45.50
2023-03-10T20:47:10.195Z,50.75
2023-03-10T20:50:42.543Z,65.10
2023-03-10T20:54:14.448Z,59.87
2023-03-10T20:57:47.992Z,60.50
2023-03-10T21:01:21.208Z,62.88
2023-03-10T21:04:58.535Z,55.33
2023-03-10T21:08:30.465Z,43.75
2023-03-10T21:12:06.111Z,47.83
2023-03-10T21:15:39.524Z,39.38
2023-03-10T21:19:12.127Z,40.07
2023-03-10T21:22:44.179Z,44.90
2023-03-10T21:26:20.016Z,60.65
2023-03-10T21:29:51.955Z,58.93
2023-03-10T21:33:26.163Z,59.95
2023-03-10T21:36:58.824Z,65.50
2023-03-10T21:40:31.147Z,51.03
2023-03-10T21:44:03.465Z,69.65
2023-03-10T21:47:36.070Z,51.97
2023-03-10T21:51:10.224Z,53.20
2023-03-10T21:54:43.592Z,55.00
2023-03-10T21:58:15.926Z,53.80
2023-03-10T22:01:47.790Z,51.08
2023-03-10T22:05:20.488Z,62.13
2023-03-10T22:08:52.388Z,87.40
2023-03-10T22:12:24.501Z,139.02
2023-03-10T22:15:56.331Z,88.27
2023-03-10T22:19:28.765Z,77.35
2023-03-10T22:23:01.202Z,58.20
2023-03-10T22:26:33.491Z,66.65
2023-03-10T22:30:06.908Z,62.77
2023-03-10T22:33:39.051Z,64.82
2023-03-10T22:37:12.241Z,61.78
2023-03-10T22:40:44.204Z,63.43
2023-03-10T22:44:16.718Z,54.65
2023-03-10T22:47:52.357Z,47.10
2023-03-10T22:51:24.229Z,45.03
2023-03-10T22:54:56.493Z,40.47
2023-03-10T22:58:29.107Z,35.70
2023-03-10T23:02:01.660Z,30.02
2023-03-10T23:05:34.131Z,31.30
2023-03-10T23:09:07.420Z,24.08
2023-03-10T23:12:41.113Z,20.55
2023-03-10T23:16:13.733Z,22.77
2023-03-10T23:19:48.173Z,20.17
2023-03-10T23:23:20.440Z,20.13
2023-03-10T23:26:53.196Z,20.20
2023-03-10T23:30:25.867Z,13.93
2023-03-10T23:33:57.912Z,13.68
2023-03-10T23:37:29.647Z,15.65
2023-03-10T23:41:01.779Z,15.30
2023-03-10T23:44:34.840Z,12.95
2023-03-10T23:48:11.628Z,10.30
2023-03-10T23:51:45.682Z,8.67
2023-03-10T23:55:21.417Z,9.27
2023-03-10T23:58:53.220Z,10.15
